Time,TemperatureF,DewpointF,PressureIn,WindDirection,WindDirectionDegrees,WindSpeedMPH,WindSpeedGustMPH,Humidity,HourlyPrecipIn,Conditions,Clouds,dailyrainin,SoftwareType,DateUTC
2013-05-16 00:03:00,73.0,61.0,29.76,West,270,0.0,-999.0,66,-99.99,,,0.00,Acu-Link.com,2013-05-16 04:03:00,
2013-05-16 00:18:00,72.7,60.7,29.76,West,270,0.0,-999.0,66,-99.99,,,0.00,Acu-Link.com,2013-05-16 04:18:00,
2013-05-16 00:33:00,72.1,60.5,29.76,WSW,247,0.0,-999.0,67,-99.99,,,0.00,Acu-Link.com,2013-05-16 04:33:00,
2013-05-16 00:48:00,72.1,59.7,29.76,West,270,1.7,-999.0,65,-99.99,,,0.00,Acu-Link.com,2013-05-16 04:48:00,
2013-05-16 01:03:00,72.1,59.7,29.75,WSW,247,0.0,-999.0,65,-99.99,,,0.00,Acu-Link.com,2013-05-16 05:03:00,
2013-05-16 01:19:00,71.6,60.0,29.76,West,270,0.0,-999.0,67,-99.99,,,0.00,Acu-Link.com,2013-05-16 05:19:00,
2013-05-16 01:34:00,70.9,59.4,29.76,WSW,247,0.0,-999.0,67,-99.99,,,0.00,Acu-Link.com,2013-05-16 05:34:00,
2013-05-16 01:49:00,70.0,59.8,29.75,NW,315,1.7,-999.0,70,-99.99,,,0.00,Acu-Link.com,2013-05-16 05:49:00,
2013-05-16 02:04:00,69.4,59.2,29.75,NNW,337,0.0,-999.0,70,-99.99,,,0.00,Acu-Link.com,2013-05-16 06:04:00,
2013-05-16 02:19:00,69.1,59.3,29.75,West,270,0.0,-999.0,71,-99.99,,,0.00,Acu-Link.com,2013-05-16 06:19:00,
2013-05-16 02:34:00,68.9,58.7,29.75,West,270,0.0,-999.0,70,-99.99,,,0.00,Acu-Link.com,2013-05-16 06:34:00,
2013-05-16 02:49:00,68.9,58.3,29.74,West,270,0.0,-999.0,69,-99.99,,,0.00,Acu-Link.com,2013-05-16 06:49:00,
2013-05-16 03:04:00,68.9,58.3,29.73,West,270,0.0,-999.0,69,-99.99,,,0.00,Acu-Link.com,2013-05-16 07:04:00,
2013-05-16 03:19:00,68.9,58.3,29.74,West,270,1.7,-999.0,69,-99.99,,,0.00,Acu-Link.com,2013-05-16 07:19:00,
2013-05-16 03:34:00,68.4,57.8,29.74,West,270,0.0,-999.0,69,-99.99,,,0.00,Acu-Link.com,2013-05-16 07:34:00,
2013-05-16 03:50:00,67.8,58.0,29.75,West,270,1.7,-999.0,71,-99.99,,,0.00,Acu-Link.com,2013-05-16 07:50:00,
2013-05-16 04:05:00,67.5,57.8,29.74,West,270,0.0,-999.0,71,-99.99,,,0.00,Acu-Link.com,2013-05-16 08:05:00,
2013-05-16 04:20:00,67.1,58.9,29.75,NNE,22,0.0,-999.0,75,-99.99,,,0.00,Acu-Link.com,2013-05-16 08:20:00,
2013-05-16 04:35:00,66.2,58.0,29.75,WNW,292,0.0,-999.0,75,-99.99,,,0.00,Acu-Link.com,2013-05-16 08:35:00,
2013-05-16 04:51:00,65.7,58.3,29.75,NNW,337,0.0,-999.0,77,-99.99,,,0.00,Acu-Link.com,2013-05-16 08:51:00,
2013-05-16 05:06:00,65.5,57.7,29.76,West,270,0.0,-999.0,76,-99.99,,,0.00,Acu-Link.com,2013-05-16 09:06:00,
2013-05-16 05:21:00,65.5,57.7,29.76,West,270,0.0,-999.0,76,-99.99,,,0.00,Acu-Link.com,2013-05-16 09:21:00,
2013-05-16 05:36:00,65.3,57.5,29.76,West,270,0.0,-999.0,76,-99.99,,,0.00,Acu-Link.com,2013-05-16 09:36:00,
2013-05-16 05:52:00,64.9,57.5,29.76,West,270,0.0,-999.0,77,-99.99,,,0.00,Acu-Link.com,2013-05-16 09:52:00,
2013-05-16 06:07:00,64.2,57.5,29.77,West,270,0.0,-999.0,79,-99.99,,,0.00,Acu-Link.com,2013-05-16 10:07:00,
2013-05-16 06:22:00,64.0,57.4,29.77,West,270,0.0,-999.0,79,-99.99,,,0.00,Acu-Link.com,2013-05-16 10:22:00,
2013-05-16 06:37:00,63.7,58.1,29.78,SSW,202,0.0,-999.0,82,-99.99,,,0.00,Acu-Link.com,2013-05-16 10:37:00,
2013-05-16 06:52:00,63.1,57.5,29.78,WSW,247,0.0,-999.0,82,-99.99,,,0.00,Acu-Link.com,2013-05-16 10:52:00,
2013-05-16 07:08:00,62.6,57.4,29.79,WSW,247,0.0,-999.0,83,-99.99,,,0.00,Acu-Link.com,2013-05-16 11:08:00,
2013-05-16 07:23:00,62.6,58.0,29.79,West,270,0.0,-999.0,85,-99.99,,,0.00,Acu-Link.com,2013-05-16 11:23:00,
2013-05-16 07:38:00,63.3,58.4,29.79,West,270,0.0,-999.0,84,-99.99,,,0.00,Acu-Link.com,2013-05-16 11:38:00,
2013-05-16 07:53:00,64.6,59.0,29.80,WSW,247,0.0,-999.0,82,-99.99,,,0.00,Acu-Link.com,2013-05-16 11:53:00,
2013-05-16 08:08:00,66.0,59.6,29.81,WSW,247,0.0,-999.0,80,-99.99,,,0.00,Acu-Link.com,2013-05-16 12:08:00,
2013-05-16 08:23:00,67.3,60.2,29.80,SW,225,0.0,-999.0,78,-99.99,,,0.00,Acu-Link.com,2013-05-16 12:23:00,
2013-05-16 08:38:00,68.9,60.6,29.82,SW,225,0.0,-999.0,75,-99.99,,,0.00,Acu-Link.com,2013-05-16 12:38:00,
2013-05-16 08:55:00,70.3,60.0,29.81,West,270,0.0,-999.0,70,-99.99,,,0.00,Acu-Link.com,2013-05-16 12:55:00,
2013-05-16 09:10:00,72.9,60.9,29.81,SSW,202,0.0,-999.0,66,-99.99,,,0.00,Acu-Link.com,2013-05-16 13:10:00,
2013-05-16 09:25:00,74.3,61.3,29.82,West,270,0.0,-999.0,64,-99.99,,,0.00,Acu-Link.com,2013-05-16 13:25:00,
2013-05-16 09:40:00,76.5,61.1,29.82,WSW,247,1.7,-999.0,59,-99.99,,,0.00,Acu-Link.com,2013-05-16 13:40:00,
2013-05-16 09:55:00,76.5,61.6,29.84,West,270,1.1,-999.0,60,-99.99,,,0.00,Acu-Link.com,2013-05-16 13:55:00,
2013-05-16 10:10:00,77.7,60.2,29.83,NNE,22,0.0,-999.0,55,-99.99,,,0.00,Acu-Link.com,2013-05-16 14:10:00,
2013-05-16 10:25:00,79.0,59.3,29.82,NNW,337,2.7,-999.0,51,-99.99,,,0.00,Acu-Link.com,2013-05-16 14:25:00,
2013-05-16 10:40:00,79.3,59.0,29.83,WNW,292,1.1,-999.0,50,-99.99,,,0.00,Acu-Link.com,2013-05-16 14:40:00,
2013-05-16 10:55:00,79.5,58.6,29.83,East,90,1.1,-999.0,49,-99.99,,,0.00,Acu-Link.com,2013-05-16 14:55:00,
2013-05-16 11:11:00,81.7,57.0,29.83,WNW,292,1.1,-999.0,43,-99.99,,,0.00,Acu-Link.com,2013-05-16 15:11:00,
2013-05-16 11:26:00,82.9,57.4,29.83,SSW,202,2.7,-999.0,42,-99.99,,,0.00,Acu-Link.com,2013-05-16 15:26:00,
2013-05-16 11:41:00,82.4,56.3,29.84,West,270,2.7,-999.0,41,-99.99,,,0.00,Acu-Link.com,2013-05-16 15:41:00,
2013-05-16 11:56:00,83.7,56.8,29.83,South,180,1.7,-999.0,40,-99.99,,,0.00,Acu-Link.com,2013-05-16 15:56:00,
2013-05-16 12:11:00,82.4,56.3,29.83,North,0,1.1,-999.0,41,-99.99,,,0.00,Acu-Link.com,2013-05-16 16:11:00,
2013-05-16 12:26:00,82.9,57.4,29.83,East,90,0.0,-999.0,42,-99.99,,,0.00,Acu-Link.com,2013-05-16 16:26:00,
2013-05-16 12:41:00,81.7,55.7,29.82,North,0,1.7,-999.0,41,-99.99,,,0.00,Acu-Link.com,2013-05-16 16:41:00,
2013-05-16 12:56:00,81.9,57.2,29.82,North,0,1.7,-999.0,43,-99.99,,,0.00,Acu-Link.com,2013-05-16 16:56:00,
2013-05-16 13:11:00,82.2,56.1,29.81,NNW,337,2.2,-999.0,41,-99.99,,,0.00,Acu-Link.com,2013-05-16 17:11:00,
2013-05-16 13:27:00,81.7,57.6,29.81,WSW,247,0.0,-999.0,44,-99.99,,,0.00,Acu-Link.com,2013-05-16 17:27:00,
2013-05-16 13:42:00,81.7,55.7,29.80,WSW,247,0.0,-999.0,41,-99.99,,,0.00,Acu-Link.com,2013-05-16 17:42:00,
2013-05-16 13:57:00,81.9,58.4,29.80,NE,45,1.7,-999.0,45,-99.99,,,0.00,Acu-Link.com,2013-05-16 17:57:00,
2013-05-16 14:12:00,81.0,60.0,29.80,WSW,247,0.0,-999.0,49,-99.99,,,0.00,Acu-Link.com,2013-05-16 18:12:00,
2013-05-16 14:27:00,82.2,58.1,29.80,SSE,157,1.1,-999.0,44,-99.99,,,0.00,Acu-Link.com,2013-05-16 18:27:00,
2013-05-16 14:42:00,82.0,57.9,29.79,SSW,202,1.1,-999.0,44,-99.99,,,0.00,Acu-Link.com,2013-05-16 18:42:00,
2013-05-16 14:57:00,81.5,57.5,29.80,West,270,0.0,-999.0,44,-99.99,,,0.00,Acu-Link.com,2013-05-16 18:57:00,
2013-05-16 15:12:00,82.2,58.1,29.79,North,0,2.7,-999.0,44,-99.99,,,0.00,Acu-Link.com,2013-05-16 19:12:00,
2013-05-16 15:27:00,83.7,60.1,29.80,ESE,112,2.2,-999.0,45,-99.99,,,0.00,Acu-Link.com,2013-05-16 19:27:00,
2013-05-16 15:42:00,83.8,57.6,29.78,NE,45,2.7,-999.0,41,-99.99,,,0.00,Acu-Link.com,2013-05-16 19:42:00,
2013-05-16 15:58:00,81.7,57.6,29.78,South,180,0.0,-999.0,44,-99.99,,,0.00,Acu-Link.com,2013-05-16 19:58:00,
2013-05-16 16:13:00,80.8,59.8,29.78,SSE,157,0.0,-999.0,49,-99.99,,,0.00,Acu-Link.com,2013-05-16 20:13:00,
2013-05-16 16:28:00,81.9,60.8,29.77,East,90,1.7,-999.0,49,-99.99,,,0.00,Acu-Link.com,2013-05-16 20:28:00,
2013-05-16 16:43:00,81.7,62.3,29.77,SW,225,0.0,-999.0,52,-99.99,,,0.00,Acu-Link.com,2013-05-16 20:43:00,
2013-05-16 16:58:00,82.0,61.5,29.77,West,270,0.0,-999.0,50,-99.99,,,0.00,Acu-Link.com,2013-05-16 20:58:00,
2013-05-16 17:13:00,81.3,60.9,29.77,WSW,247,0.0,-999.0,50,-99.99,,,0.00,Acu-Link.com,2013-05-16 21:13:00,
2013-05-16 17:28:00,80.1,60.3,29.77,West,270,0.0,-999.0,51,-99.99,,,0.00,Acu-Link.com,2013-05-16 21:28:00,
2013-05-16 17:43:00,79.2,60.6,29.77,SSE,157,0.0,-999.0,53,-99.99,,,0.00,Acu-Link.com,2013-05-16 21:43:00,
2013-05-16 17:58:00,78.3,61.3,29.77,NW,315,0.0,-999.0,56,-99.99,,,0.00,Acu-Link.com,2013-05-16 21:58:00,
2013-05-16 18:14:00,77.4,61.9,29.76,WNW,292,0.0,-999.0,59,-99.99,,,0.00,Acu-Link.com,2013-05-16 22:14:00,
2013-05-16 18:29:00,77.2,62.7,29.76,SW,225,0.0,-999.0,61,-99.99,,,0.00,Acu-Link.com,2013-05-16 22:29:00,
2013-05-16 18:44:00,76.8,62.8,29.77,NW,315,0.0,-999.0,62,-99.99,,,0.00,Acu-Link.com,2013-05-16 22:44:00,
2013-05-16 18:59:00,77.0,63.9,29.78,NW,315,0.0,-999.0,64,-99.99,,,0.00,Acu-Link.com,2013-05-16 22:59:00,
2013-05-16 19:14:00,77.2,63.6,29.78,SW,225,0.0,-999.0,63,-99.99,,,0.00,Acu-Link.com,2013-05-16 23:14:00,
2013-05-16 19:29:00,77.2,63.6,29.77,SW,225,0.0,-999.0,63,-99.99,,,0.00,Acu-Link.com,2013-05-16 23:29:00,
2013-05-16 19:44:00,76.5,63.8,29.77,West,270,0.0,-999.0,65,-99.99,,,0.00,Acu-Link.com,2013-05-16 23:44:00,
2013-05-16 19:59:00,75.6,63.4,29.78,West,270,0.0,-999.0,66,-99.99,,,0.00,Acu-Link.com,2013-05-16 23:59:00,
2013-05-16 20:14:00,74.3,63.5,29.78,West,270,0.0,-999.0,69,-99.99,,,0.00,Acu-Link.com,2013-05-17 00:14:00,
2013-05-16 20:30:00,73.2,62.8,29.78,WNW,292,0.0,-999.0,70,-99.99,,,0.00,Acu-Link.com,2013-05-17 00:30:00,
2013-05-16 20:45:00,72.1,62.6,29.78,West,270,0.0,-999.0,72,-99.99,,,0.00,Acu-Link.com,2013-05-17 00:45:00,
2013-05-16 21:00:00,71.6,62.1,29.79,WNW,292,0.0,-999.0,72,-99.99,,,0.00,Acu-Link.com,2013-05-17 01:00:00,
2013-05-16 21:15:00,70.9,62.2,29.80,WNW,292,0.0,-999.0,74,-99.99,,,0.00,Acu-Link.com,2013-05-17 01:15:00,
2013-05-16 21:30:00,70.5,62.6,29.80,NE,45,0.0,-999.0,76,-99.99,,,0.00,Acu-Link.com,2013-05-17 01:30:00,
2013-05-16 21:45:00,70.2,61.9,29.81,NW,315,0.0,-999.0,75,-99.99,,,0.00,Acu-Link.com,2013-05-17 01:45:00,
2013-05-16 22:00:00,69.8,61.9,29.82,NNE,22,0.0,-999.0,76,-99.99,,,0.00,Acu-Link.com,2013-05-17 02:00:00,
2013-05-16 22:15:00,69.3,61.8,29.82,North,0,0.0,-999.0,77,-99.99,,,0.00,Acu-Link.com,2013-05-17 02:15:00,
2013-05-16 22:30:00,68.9,61.7,29.83,North,0,0.0,-999.0,78,-99.99,,,0.00,Acu-Link.com,2013-05-17 02:30:00,
2013-05-16 22:46:00,68.4,62.0,29.83,NNE,22,0.0,-999.0,80,-99.99,,,0.00,Acu-Link.com,2013-05-17 02:46:00,
2013-05-16 23:01:00,68.0,61.6,29.84,North,0,0.0,-999.0,80,-99.99,,,0.00,Acu-Link.com,2013-05-17 03:01:00,
2013-05-16 23:16:00,67.5,61.8,29.84,NNW,337,0.0,-999.0,82,-99.99,,,0.00,Acu-Link.com,2013-05-17 03:16:00,
2013-05-16 23:31:00,67.1,61.4,29.83,NNW,337,0.0,-999.0,82,-99.99,,,0.00,Acu-Link.com,2013-05-17 03:31:00,
2013-05-16 23:46:00,66.6,61.3,29.82,North,0,0.0,-999.0,83,-99.99,,,0.00,Acu-Link.com,2013-05-17 03:46:00,